Aqua, Pennsylvania
Current Conditions -  °F | °C
As of 3:53 AM on Saturday 29 Nov 2014 (Local Time) from KHGR Reporting Station
Light Snow Light Snow  
Wind Chill: 29°   Ceiling: 4200
Heat Index: 29°   Visibility: 7mi
Dew Point: 21°   Wind: 3mph
Humidity: 72%   Direction: 180°S
Pressure: 30.27"   Gusts: NA
Location:  39.9438°N, 77.6827°W
Report Text: KHGR 290853Z AUTO 18003KT 7SM -SN OVC042 M02/M06 A3027 RMK AO2 SLP268 P0000 60000 T10171061 50006
Loading
Personal Weather Stations






























Interactive Weather Map New forecast layout! Learn more

10-Day Weather Forecast

Advertisements
Track Severe Weather on mobile